首页
METAR-TAF:

METAR-TAF

机场 :

Chapleau, 安大略省, 加拿大

纬度: 47-49N, 经度: 083-21W, 海拔: 447米

当前天气观测

该预报发布于5小时和15分钟前的01:00 UTC
风速9节,风向西南,有时为15节阵风
温度 25°C
湿度 65%
气压 1014 hPa
能見度: 24.1公里
少量云层高于3300英尺
多云层高于5100英尺, 塔状积云.
多云层高于15000英尺
阴天层高于26000英尺
附近有阵雨

METAR: CYLD 070100Z CCA 23009G15KT 15SM VCSH FEW033 BKN051TCU BKN150 OVC260 25/18 A2994 RMK CF1TCU4AC1CC2 LAST STFD OBS/NEXT 071000 UTC SLP140 DENSITY ALT 2900FT

时间: 02:15 (06:15 UTC)

预报

该预报发布于10小时和37分钟前的19:38 UTC
预报有效从06日的 20点(UTC)到 07日的 01点(UTC)
风速10节,风向西南,有时为20节阵风
能見度: 10公里
散云层高于5000英尺
成为
从 06日的 23点(UTC)到 06日的 24点(UTC)
风速6节,风向南转西南

TAF: CYLD 061938Z 0620/0701 23010G20KT P6SM SCT050 BECMG 0623/0624 21006KT RMK NXT FCST WILL BE ISSUED AT 071145Z

超过4000个机场的气象观测和天气预报(METAR&TAF报告)。

可查询的气象台以黄色和红色小点在地图上表示。

将鼠标移到小点上方,可查看气象台名称。

然后点击查看天气观测和预报。

如需切换地图:点击带黑十字的绿色按钮放大地图;点击带横线的绿色按钮缩小地图;或者点击绿色箭头查看邻近地区的地图。


METAR-TAF: